FIN418 EFHK-EFOU
Flight info
| Callsign | FIN418 |
|---|---|
| Flight time | 0h 50m |
| Altitude | 32000 |
| Route | TEVRU Y75 SUVIB |
| Aircraft | A321/M-SDE3FGHIRWY/LB1 |
Departure
| Time | 2026-05-07 18:27 |
|---|---|
| Airport | Helsinki Vantaa Airport (EFHK) |
Arrival
| Time | 2026-05-07 19:18 |
|---|---|
| Airport | Oulu Airport (EFOU) |
| Time | Latitude | Longitude | Altitude | Speed | Heading |
|---|---|---|---|---|---|
| 2026-05-07 17:54 | 60.31805 | 24.96383 | 185 ft | 0 kts | 137° |
| 2026-05-07 17:55 | 60.31841 | 24.96463 | 186 ft | 0 kts | 137° |
| 2026-05-07 18:17 | 60.31849 | 24.96449 | 186 ft | 2 kts | 137° |
| 2026-05-07 18:17 | 60.31860 | 24.96428 | 185 ft | 2 kts | 137° |
| 2026-05-07 18:17 | 60.31871 | 24.96408 | 185 ft | 2 kts | 137° |
| 2026-05-07 18:17 | 60.31882 | 24.96393 | 185 ft | 1 kts | 183° |
| 2026-05-07 18:18 | 60.31892 | 24.96400 | 185 ft | 0 kts | 227° |
| 2026-05-07 18:18 | 60.31896 | 24.96411 | 185 ft | 0 kts | 228° |
| 2026-05-07 18:18 | 60.31896 | 24.96412 | 185 ft | 0 kts | 228° |
| 2026-05-07 18:20 | 60.31894 | 24.96406 | 185 ft | 1 kts | 227° |
| 2026-05-07 18:20 | 60.31877 | 24.96368 | 184 ft | 5 kts | 227° |
| 2026-05-07 18:21 | 60.31856 | 24.96283 | 183 ft | 8 kts | 261° |
| 2026-05-07 18:21 | 60.31869 | 24.96142 | 181 ft | 11 kts | 304° |
| 2026-05-07 18:21 | 60.31928 | 24.96024 | 181 ft | 12 kts | 317° |
| 2026-05-07 18:21 | 60.31987 | 24.95914 | 181 ft | 0 kts | 317° |
| 2026-05-07 18:22 | 60.31988 | 24.95912 | 181 ft | 1 kts | 317° |
| 2026-05-07 18:22 | 60.32027 | 24.95840 | 182 ft | 12 kts | 317° |
| 2026-05-07 18:23 | 60.32087 | 24.95730 | 185 ft | 10 kts | 317° |
| 2026-05-07 18:23 | 60.32135 | 24.95640 | 188 ft | 8 kts | 317° |
| 2026-05-07 18:23 | 60.32194 | 24.95532 | 190 ft | 15 kts | 318° |
| 2026-05-07 18:23 | 60.32281 | 24.95370 | 192 ft | 16 kts | 318° |
| 2026-05-07 18:24 | 60.32377 | 24.95249 | 193 ft | 16 kts | 340° |
| 2026-05-07 18:24 | 60.32487 | 24.95176 | 193 ft | 16 kts | 342° |
| 2026-05-07 18:24 | 60.32599 | 24.95103 | 193 ft | 17 kts | 342° |
| 2026-05-07 18:24 | 60.32712 | 24.95029 | 195 ft | 16 kts | 342° |
| 2026-05-07 18:25 | 60.32813 | 24.94962 | 198 ft | 14 kts | 342° |
| 2026-05-07 18:25 | 60.32902 | 24.94890 | 200 ft | 13 kts | 326° |
| 2026-05-07 18:25 | 60.32973 | 24.94763 | 201 ft | 13 kts | 317° |
| 2026-05-07 18:25 | 60.33046 | 24.94625 | 201 ft | 14 kts | 317° |
| 2026-05-07 18:26 | 60.33119 | 24.94490 | 202 ft | 14 kts | 318° |
| 2026-05-07 18:26 | 60.33110 | 24.94374 | 202 ft | 7 kts | 227° |
| 2026-05-07 18:26 | 60.33077 | 24.94306 | 203 ft | 7 kts | 226° |
| 2026-05-07 18:26 | 60.32973 | 24.94079 | 203 ft | 52 kts | 227° |
| 2026-05-07 18:27 | 60.32575 | 24.93206 | 195 ft | 115 kts | 227° |
| 2026-05-07 18:27 | 60.31909 | 24.91730 | 186 ft | 165 kts | 226° |
| 2026-05-07 18:27 | 60.31146 | 24.90033 | 754 ft | 163 kts | 227° |
| 2026-05-07 18:27 | 60.30413 | 24.88344 | 1361 ft | 162 kts | 238° |
| 2026-05-07 18:28 | 60.29993 | 24.86265 | 1831 ft | 164 kts | 270° |
| 2026-05-07 18:28 | 60.30246 | 24.83990 | 2199 ft | 173 kts | 293° |
| 2026-05-07 18:28 | 60.30761 | 24.81728 | 2520 ft | 188 kts | 297° |
| 2026-05-07 18:28 | 60.31348 | 24.79255 | 2852 ft | 204 kts | 297° |
| 2026-05-07 18:29 | 60.32009 | 24.76580 | 3110 ft | 224 kts | 301° |
| 2026-05-07 18:29 | 60.32805 | 24.73742 | 3473 ft | 242 kts | 301° |
| 2026-05-07 18:29 | 60.33644 | 24.70758 | 3999 ft | 252 kts | 301° |
| 2026-05-07 18:29 | 60.34511 | 24.67648 | 4721 ft | 254 kts | 301° |
| 2026-05-07 18:30 | 60.35447 | 24.64687 | 5385 ft | 256 kts | 314° |
| 2026-05-07 18:30 | 60.36930 | 24.62735 | 6031 ft | 258 kts | 342° |
| 2026-05-07 18:30 | 60.38696 | 24.62377 | 6688 ft | 261 kts | 7° |
| 2026-05-07 18:30 | 60.40457 | 24.63154 | 7359 ft | 265 kts | 12° |
| 2026-05-07 18:31 | 60.42265 | 24.64023 | 7971 ft | 269 kts | 12° |
| 2026-05-07 18:31 | 60.44085 | 24.64883 | 8650 ft | 277 kts | 11° |
| 2026-05-07 18:31 | 60.45956 | 24.65756 | 9578 ft | 280 kts | 11° |
| 2026-05-07 18:31 | 60.47863 | 24.66638 | 10414 ft | 284 kts | 10° |
| 2026-05-07 18:32 | 60.49805 | 24.67530 | 10966 ft | 299 kts | 9° |
| 2026-05-07 18:32 | 60.51911 | 24.68492 | 11407 ft | 317 kts | 9° |
| 2026-05-07 18:32 | 60.54085 | 24.69487 | 11998 ft | 328 kts | 9° |
| 2026-05-07 18:32 | 60.56291 | 24.70507 | 12629 ft | 329 kts | 8° |
| 2026-05-07 18:33 | 60.58529 | 24.71539 | 13107 ft | 334 kts | 8° |
| 2026-05-07 18:33 | 60.60780 | 24.72576 | 13615 ft | 338 kts | 8° |
| 2026-05-07 18:33 | 60.63068 | 24.73633 | 14153 ft | 340 kts | 7° |
| 2026-05-07 18:33 | 60.65376 | 24.74700 | 14680 ft | 343 kts | 7° |
| 2026-05-07 18:34 | 60.67697 | 24.75771 | 15185 ft | 345 kts | 7° |
| 2026-05-07 18:34 | 60.70032 | 24.76852 | 15670 ft | 349 kts | 6° |
| 2026-05-07 18:34 | 60.72409 | 24.77953 | 16171 ft | 351 kts | 6° |
| 2026-05-07 18:34 | 60.74783 | 24.79056 | 16648 ft | 354 kts | 6° |
| 2026-05-07 18:35 | 60.77175 | 24.80170 | 17096 ft | 358 kts | 6° |
| 2026-05-07 18:35 | 60.79625 | 24.81312 | 17556 ft | 361 kts | 5° |
| 2026-05-07 18:35 | 60.82049 | 24.82345 | 17994 ft | 361 kts | 2° |
| 2026-05-07 18:35 | 60.84535 | 24.83080 | 18436 ft | 362 kts | 359° |
| 2026-05-07 18:36 | 60.87034 | 24.83681 | 18890 ft | 363 kts | 358° |
| 2026-05-07 18:36 | 60.89542 | 24.84258 | 19320 ft | 366 kts | 358° |
| 2026-05-07 18:36 | 60.92073 | 24.84842 | 19723 ft | 369 kts | 358° |
| 2026-05-07 18:36 | 60.94627 | 24.85434 | 20112 ft | 372 kts | 358° |
| 2026-05-07 18:37 | 60.97173 | 24.86033 | 20509 ft | 375 kts | 358° |
| 2026-05-07 18:37 | 60.99763 | 24.86644 | 20869 ft | 378 kts | 358° |
| 2026-05-07 18:37 | 61.02404 | 24.87269 | 21225 ft | 382 kts | 357° |
| 2026-05-07 18:37 | 61.05035 | 24.87895 | 21606 ft | 384 kts | 357° |
| 2026-05-07 18:38 | 61.07688 | 24.88526 | 21994 ft | 386 kts | 357° |
| 2026-05-07 18:38 | 61.10357 | 24.89164 | 22355 ft | 389 kts | 357° |
| 2026-05-07 18:38 | 61.13015 | 24.89801 | 22664 ft | 392 kts | 357° |
| 2026-05-07 18:38 | 61.15735 | 24.90454 | 22997 ft | 395 kts | 357° |
| 2026-05-07 18:39 | 61.18448 | 24.91106 | 23287 ft | 398 kts | 357° |
| 2026-05-07 18:39 | 61.21229 | 24.91773 | 23618 ft | 401 kts | 357° |
| 2026-05-07 18:39 | 61.23980 | 24.92438 | 23942 ft | 403 kts | 357° |
| 2026-05-07 18:39 | 61.26763 | 24.93110 | 24270 ft | 405 kts | 357° |
| 2026-05-07 18:40 | 61.29557 | 24.93786 | 24629 ft | 406 kts | 357° |
| 2026-05-07 18:40 | 61.32334 | 24.94460 | 24958 ft | 407 kts | 357° |
| 2026-05-07 18:40 | 61.35139 | 24.95139 | 25261 ft | 409 kts | 357° |
| 2026-05-07 18:40 | 61.37956 | 24.95827 | 25544 ft | 410 kts | 357° |
| 2026-05-07 18:41 | 61.40795 | 24.96517 | 25862 ft | 412 kts | 358° |
| 2026-05-07 18:41 | 61.43611 | 24.97200 | 26124 ft | 414 kts | 358° |
| 2026-05-07 18:41 | 61.46479 | 24.97903 | 26425 ft | 415 kts | 358° |
| 2026-05-07 18:41 | 61.49330 | 24.98603 | 26683 ft | 417 kts | 358° |
| 2026-05-07 18:42 | 61.52188 | 24.99308 | 26950 ft | 418 kts | 358° |
| 2026-05-07 18:42 | 61.55107 | 25.00027 | 27180 ft | 421 kts | 358° |
| 2026-05-07 18:42 | 61.57982 | 25.00739 | 27431 ft | 422 kts | 358° |
| 2026-05-07 18:42 | 61.60895 | 25.01373 | 27662 ft | 421 kts | 356° |
| 2026-05-07 18:43 | 61.63793 | 25.01673 | 27906 ft | 420 kts | 353° |
| 2026-05-07 18:43 | 61.66683 | 25.01802 | 28144 ft | 421 kts | 353° |
| 2026-05-07 18:43 | 61.69614 | 25.01897 | 28359 ft | 422 kts | 353° |
| 2026-05-07 18:43 | 61.72530 | 25.01987 | 28588 ft | 424 kts | 353° |
| 2026-05-07 18:44 | 61.75483 | 25.02086 | 28802 ft | 426 kts | 353° |
| 2026-05-07 18:44 | 61.78447 | 25.02192 | 28957 ft | 428 kts | 353° |
| 2026-05-07 18:44 | 61.81398 | 25.02300 | 29141 ft | 429 kts | 353° |
| 2026-05-07 18:44 | 61.84378 | 25.02417 | 29337 ft | 430 kts | 353° |
| 2026-05-07 18:45 | 61.87357 | 25.02531 | 29496 ft | 431 kts | 353° |
| 2026-05-07 18:45 | 61.90364 | 25.02645 | 29667 ft | 432 kts | 353° |
| 2026-05-07 18:45 | 61.93359 | 25.02758 | 29829 ft | 434 kts | 353° |
| 2026-05-07 18:45 | 61.96344 | 25.02870 | 29962 ft | 435 kts | 353° |
| 2026-05-07 18:46 | 61.99384 | 25.02987 | 30127 ft | 436 kts | 353° |
| 2026-05-07 18:46 | 62.02404 | 25.03102 | 30264 ft | 438 kts | 354° |
| 2026-05-07 18:46 | 62.05424 | 25.03217 | 30408 ft | 439 kts | 354° |
| 2026-05-07 18:46 | 62.08475 | 25.03334 | 30550 ft | 441 kts | 354° |
| 2026-05-07 18:47 | 62.11554 | 25.03453 | 30707 ft | 441 kts | 354° |
| 2026-05-07 18:47 | 62.14599 | 25.03572 | 30869 ft | 442 kts | 354° |
| 2026-05-07 18:47 | 62.17660 | 25.03693 | 31022 ft | 442 kts | 354° |
| 2026-05-07 18:47 | 62.20718 | 25.03809 | 31165 ft | 443 kts | 354° |
| 2026-05-07 18:48 | 62.23762 | 25.03926 | 31320 ft | 444 kts | 354° |
| 2026-05-07 18:48 | 62.26865 | 25.04046 | 31464 ft | 445 kts | 354° |
| 2026-05-07 18:48 | 62.29940 | 25.04163 | 31589 ft | 446 kts | 354° |
| 2026-05-07 18:48 | 62.33017 | 25.04281 | 31713 ft | 447 kts | 354° |
| 2026-05-07 18:49 | 62.36107 | 25.04400 | 31852 ft | 448 kts | 354° |
| 2026-05-07 18:49 | 62.39205 | 25.04521 | 31991 ft | 449 kts | 355° |
| 2026-05-07 18:49 | 62.42338 | 25.04642 | 32041 ft | 449 kts | 354° |
| 2026-05-07 18:50 | 62.48572 | 25.04887 | 32043 ft | 450 kts | 355° |
| 2026-05-07 18:50 | 62.54777 | 25.05131 | 32046 ft | 450 kts | 355° |
| 2026-05-07 18:50 | 62.57889 | 25.05255 | 31887 ft | 451 kts | 355° |
| 2026-05-07 18:51 | 62.61014 | 25.05377 | 31689 ft | 448 kts | 355° |
| 2026-05-07 18:51 | 62.64114 | 25.05503 | 31491 ft | 445 kts | 355° |
| 2026-05-07 18:51 | 62.67177 | 25.05623 | 31297 ft | 443 kts | 354° |
| 2026-05-07 18:51 | 62.70227 | 25.05742 | 31100 ft | 440 kts | 355° |
| 2026-05-07 18:52 | 62.73248 | 25.05854 | 30916 ft | 438 kts | 355° |
| 2026-05-07 18:52 | 62.76271 | 25.05968 | 30741 ft | 438 kts | 355° |
| 2026-05-07 18:52 | 62.79306 | 25.06081 | 30563 ft | 438 kts | 355° |
| 2026-05-07 18:52 | 62.82346 | 25.06205 | 30386 ft | 438 kts | 355° |
| 2026-05-07 18:53 | 62.85397 | 25.06327 | 30192 ft | 438 kts | 354° |
| 2026-05-07 18:53 | 62.88405 | 25.06447 | 29997 ft | 436 kts | 355° |
| 2026-05-07 18:53 | 62.91442 | 25.06570 | 29801 ft | 434 kts | 355° |
| 2026-05-07 18:53 | 62.94421 | 25.06688 | 29603 ft | 432 kts | 355° |
| 2026-05-07 18:54 | 62.97403 | 25.06808 | 29404 ft | 430 kts | 355° |
| 2026-05-07 18:54 | 63.00396 | 25.06930 | 29202 ft | 428 kts | 355° |
| 2026-05-07 18:54 | 63.03337 | 25.07050 | 28999 ft | 427 kts | 355° |
| 2026-05-07 18:54 | 63.06293 | 25.07169 | 28795 ft | 425 kts | 355° |
| 2026-05-07 18:55 | 63.09233 | 25.07288 | 28592 ft | 423 kts | 355° |
| 2026-05-07 18:55 | 63.12157 | 25.07407 | 28389 ft | 421 kts | 355° |
| 2026-05-07 18:55 | 63.15051 | 25.07526 | 28184 ft | 420 kts | 355° |
| 2026-05-07 18:55 | 63.17960 | 25.07645 | 27976 ft | 418 kts | 355° |
| 2026-05-07 18:56 | 63.20829 | 25.07760 | 27770 ft | 416 kts | 355° |
| 2026-05-07 18:56 | 63.23729 | 25.07881 | 27563 ft | 415 kts | 355° |
| 2026-05-07 18:56 | 63.26582 | 25.07998 | 27357 ft | 413 kts | 356° |
| 2026-05-07 18:56 | 63.29447 | 25.08114 | 27149 ft | 412 kts | 356° |
| 2026-05-07 18:57 | 63.32273 | 25.08228 | 26942 ft | 410 kts | 356° |
| 2026-05-07 18:57 | 63.35091 | 25.08343 | 26733 ft | 407 kts | 356° |
| 2026-05-07 18:57 | 63.37914 | 25.08456 | 26524 ft | 405 kts | 356° |
| 2026-05-07 18:57 | 63.40728 | 25.08571 | 26309 ft | 404 kts | 356° |
| 2026-05-07 18:58 | 63.43501 | 25.08685 | 26094 ft | 401 kts | 356° |
| 2026-05-07 18:58 | 63.46284 | 25.08799 | 25875 ft | 400 kts | 356° |
| 2026-05-07 18:58 | 63.49053 | 25.08913 | 25659 ft | 398 kts | 356° |
| 2026-05-07 18:58 | 63.51776 | 25.09023 | 25441 ft | 397 kts | 356° |
| 2026-05-07 18:59 | 63.54533 | 25.09135 | 25203 ft | 395 kts | 356° |
| 2026-05-07 18:59 | 63.57250 | 25.09249 | 24953 ft | 393 kts | 356° |
| 2026-05-07 18:59 | 63.59959 | 25.09363 | 24637 ft | 391 kts | 356° |
| 2026-05-07 18:59 | 63.62651 | 25.09470 | 24259 ft | 389 kts | 357° |
| 2026-05-07 19:00 | 63.65333 | 25.09578 | 23833 ft | 386 kts | 357° |
| 2026-05-07 19:00 | 63.68004 | 25.09689 | 23388 ft | 383 kts | 358° |
| 2026-05-07 19:00 | 63.70643 | 25.09800 | 22947 ft | 380 kts | 358° |
| 2026-05-07 19:00 | 63.73275 | 25.09910 | 22508 ft | 378 kts | 358° |
| 2026-05-07 19:01 | 63.75866 | 25.10019 | 22055 ft | 375 kts | 358° |
| 2026-05-07 19:01 | 63.78455 | 25.10128 | 21607 ft | 373 kts | 358° |
| 2026-05-07 19:01 | 63.81048 | 25.10234 | 21145 ft | 371 kts | 359° |
| 2026-05-07 19:01 | 63.83608 | 25.10339 | 20711 ft | 369 kts | 359° |
| 2026-05-07 19:02 | 63.86144 | 25.10443 | 20266 ft | 367 kts | 359° |
| 2026-05-07 19:02 | 63.88665 | 25.10549 | 19825 ft | 365 kts | 360° |
| 2026-05-07 19:02 | 63.91179 | 25.10653 | 19402 ft | 363 kts | 360° |
| 2026-05-07 19:02 | 63.93693 | 25.10760 | 18960 ft | 361 kts | 0° |
| 2026-05-07 19:03 | 63.96158 | 25.10870 | 18537 ft | 358 kts | 0° |
| 2026-05-07 19:03 | 63.98649 | 25.10979 | 18124 ft | 355 kts | 360° |
| 2026-05-07 19:03 | 64.01091 | 25.11088 | 17716 ft | 352 kts | 360° |
| 2026-05-07 19:03 | 64.03509 | 25.11193 | 17315 ft | 349 kts | 360° |
| 2026-05-07 19:04 | 64.05924 | 25.11296 | 16904 ft | 346 kts | 359° |
| 2026-05-07 19:04 | 64.08322 | 25.11398 | 16493 ft | 344 kts | 359° |
| 2026-05-07 19:04 | 64.10695 | 25.11499 | 16090 ft | 341 kts | 359° |
| 2026-05-07 19:04 | 64.13038 | 25.11600 | 15699 ft | 339 kts | 359° |
| 2026-05-07 19:05 | 64.15370 | 25.11697 | 15290 ft | 336 kts | 359° |
| 2026-05-07 19:05 | 64.17704 | 25.11795 | 14882 ft | 334 kts | 359° |
| 2026-05-07 19:05 | 64.19984 | 25.11891 | 14437 ft | 333 kts | 359° |
| 2026-05-07 19:05 | 64.22280 | 25.11988 | 14053 ft | 329 kts | 359° |
| 2026-05-07 19:06 | 64.24552 | 25.12084 | 13662 ft | 326 kts | 359° |
| 2026-05-07 19:06 | 64.29044 | 25.12278 | 12871 ft | 321 kts | 359° |
| 2026-05-07 19:06 | 64.31260 | 25.12374 | 12476 ft | 319 kts | 359° |
| 2026-05-07 19:07 | 64.33451 | 25.12468 | 12087 ft | 317 kts | 359° |
| 2026-05-07 19:07 | 64.35629 | 25.12563 | 11703 ft | 315 kts | 359° |
| 2026-05-07 19:07 | 64.37805 | 25.12658 | 11313 ft | 313 kts | 359° |
| 2026-05-07 19:07 | 64.39973 | 25.12753 | 10922 ft | 311 kts | 359° |
| 2026-05-07 19:08 | 64.42097 | 25.12976 | 10527 ft | 310 kts | 6° |
| 2026-05-07 19:08 | 64.44150 | 25.14362 | 10280 ft | 306 kts | 22° |
| 2026-05-07 19:08 | 64.45978 | 25.16711 | 10182 ft | 295 kts | 28° |
| 2026-05-07 19:08 | 64.47683 | 25.19147 | 10072 ft | 285 kts | 29° |
| 2026-05-07 19:09 | 64.49348 | 25.21554 | 9767 ft | 282 kts | 29° |
| 2026-05-07 19:09 | 64.51005 | 25.23941 | 9399 ft | 281 kts | 28° |
| 2026-05-07 19:09 | 64.52653 | 25.26308 | 9051 ft | 279 kts | 28° |
| 2026-05-07 19:09 | 64.54295 | 25.28662 | 8706 ft | 278 kts | 29° |
| 2026-05-07 19:10 | 64.55909 | 25.30975 | 8372 ft | 276 kts | 29° |
| 2026-05-07 19:10 | 64.57543 | 25.33319 | 8028 ft | 275 kts | 28° |
| 2026-05-07 19:10 | 64.59167 | 25.35649 | 7691 ft | 274 kts | 28° |
| 2026-05-07 19:10 | 64.60765 | 25.37945 | 7361 ft | 273 kts | 28° |
| 2026-05-07 19:11 | 64.62378 | 25.40263 | 7021 ft | 272 kts | 28° |
| 2026-05-07 19:11 | 64.63983 | 25.42577 | 6685 ft | 271 kts | 28° |
| 2026-05-07 19:11 | 64.65573 | 25.44869 | 6354 ft | 270 kts | 29° |
| 2026-05-07 19:11 | 64.67149 | 25.47143 | 6029 ft | 269 kts | 29° |
| 2026-05-07 19:12 | 64.68732 | 25.49434 | 5702 ft | 268 kts | 29° |
| 2026-05-07 19:12 | 64.70303 | 25.51710 | 5367 ft | 267 kts | 29° |
| 2026-05-07 19:12 | 64.71865 | 25.53975 | 5040 ft | 266 kts | 29° |
| 2026-05-07 19:12 | 64.73444 | 25.56270 | 4752 ft | 264 kts | 29° |
| 2026-05-07 19:13 | 64.74976 | 25.58500 | 4514 ft | 259 kts | 30° |
| 2026-05-07 19:13 | 64.76493 | 25.60708 | 4291 ft | 254 kts | 30° |
| 2026-05-07 19:13 | 64.77983 | 25.62851 | 3949 ft | 255 kts | 29° |
| 2026-05-07 19:13 | 64.79484 | 25.64983 | 3594 ft | 250 kts | 29° |
| 2026-05-07 19:14 | 64.80926 | 25.67033 | 3416 ft | 238 kts | 30° |
| 2026-05-07 19:14 | 64.82308 | 25.68968 | 3370 ft | 226 kts | 25° |
| 2026-05-07 19:14 | 64.83788 | 25.69676 | 3192 ft | 217 kts | 347° |
| 2026-05-07 19:14 | 64.85040 | 25.67923 | 3062 ft | 213 kts | 306° |
| 2026-05-07 19:15 | 64.85725 | 25.65023 | 3037 ft | 198 kts | 296° |
| 2026-05-07 19:15 | 64.86331 | 25.62167 | 2810 ft | 191 kts | 297° |
| 2026-05-07 19:15 | 64.86948 | 25.59431 | 2471 ft | 191 kts | 299° |
| 2026-05-07 19:15 | 64.87596 | 25.56726 | 2143 ft | 187 kts | 300° |
| 2026-05-07 19:16 | 64.88229 | 25.54169 | 1803 ft | 180 kts | 301° |
| 2026-05-07 19:16 | 64.88850 | 25.51682 | 1500 ft | 171 kts | 301° |
| 2026-05-07 19:16 | 64.89413 | 25.49428 | 1432 ft | 151 kts | 301° |
| 2026-05-07 19:16 | 64.89929 | 25.47350 | 1197 ft | 144 kts | 302° |
| 2026-05-07 19:17 | 64.90467 | 25.45375 | 907 ft | 142 kts | 303° |
| 2026-05-07 19:17 | 64.90979 | 25.43403 | 659 ft | 141 kts | 302° |
| 2026-05-07 19:17 | 64.91480 | 25.41433 | 492 ft | 142 kts | 302° |
| 2026-05-07 19:17 | 64.91988 | 25.39460 | 270 ft | 141 kts | 302° |
| 2026-05-07 19:18 | 64.92488 | 25.37481 | 50 ft | 141 kts | 302° |
| 2026-05-07 19:18 | 64.92889 | 25.35922 | 41 ft | 69 kts | 301° |
| 2026-05-07 19:18 | 64.93016 | 25.35424 | 41 ft | 23 kts | 304° |
| 2026-05-07 19:18 | 64.93144 | 25.35211 | 41 ft | 22 kts | 353° |
| 2026-05-07 19:19 | 64.93205 | 25.35434 | 41 ft | 21 kts | 120° |
| 2026-05-07 19:19 | 64.93131 | 25.35731 | 41 ft | 20 kts | 120° |
| 2026-05-07 19:19 | 64.93057 | 25.36020 | 41 ft | 20 kts | 123° |
| 2026-05-07 19:19 | 64.92982 | 25.36309 | 41 ft | 20 kts | 121° |
| 2026-05-07 19:20 | 64.92909 | 25.36595 | 41 ft | 20 kts | 121° |
| 2026-05-07 19:20 | 64.92834 | 25.36881 | 41 ft | 20 kts | 120° |
| 2026-05-07 19:20 | 64.92761 | 25.37171 | 41 ft | 20 kts | 121° |
| 2026-05-07 19:20 | 64.92725 | 25.37312 | 41 ft | 0 kts | 122° |
| 2026-05-07 19:21 | 64.92720 | 25.37331 | 41 ft | 2 kts | 122° |
| 2026-05-07 19:21 | 64.92718 | 25.37369 | 41 ft | 2 kts | 61° |
| 2026-05-07 19:21 | 64.92740 | 25.37399 | 41 ft | 4 kts | 32° |
| 2026-05-07 19:21 | 64.92771 | 25.37445 | 41 ft | 6 kts | 32° |